createdAt,value
2023-04-21T05:13:38.306Z,10.34
2023-04-21T05:18:42.122Z,10.38
2023-04-21T05:23:44.232Z,10.62
2023-04-21T05:28:46.286Z,10.74
2023-04-21T05:33:48.442Z,10.88
2023-04-21T05:38:50.588Z,10.94
2023-04-21T05:43:52.708Z,11.09
2023-04-21T05:48:54.757Z,11.34
2023-04-21T05:53:56.821Z,11.44
2023-04-21T05:59:00.432Z,11.62
2023-04-21T06:04:02.665Z,11.84
2023-04-21T06:09:05.662Z,12.11
2023-04-21T06:14:07.838Z,12.19
2023-04-21T06:19:09.902Z,12.32
2023-04-21T06:24:11.981Z,12.56
2023-04-21T06:29:14.427Z,12.68
2023-04-21T06:34:16.692Z,12.82
2023-04-21T06:39:18.877Z,12.90
2023-04-21T06:44:21.425Z,13.12
2023-04-21T06:49:24.981Z,13.25
2023-04-21T06:54:27.068Z,13.45
2023-04-21T06:59:29.218Z,13.61
2023-04-21T07:04:32.366Z,13.73
2023-04-21T07:09:34.624Z,13.90
2023-04-21T07:14:36.686Z,14.12
2023-04-21T07:19:39.754Z,14.28
2023-04-21T07:24:41.821Z,14.55
2023-04-21T07:29:43.928Z,14.67
2023-04-21T07:34:47.029Z,14.91
2023-04-21T07:39:49.124Z,14.94
2023-04-21T07:44:51.250Z,15.23
2023-04-21T07:49:53.352Z,15.50
2023-04-21T07:54:55.591Z,15.67
2023-04-21T07:59:57.621Z,15.96
2023-04-21T08:04:59.886Z,16.06
2023-04-21T08:10:02.772Z,16.27
2023-04-21T08:15:08.220Z,16.53
2023-04-21T08:20:10.933Z,16.73
2023-04-21T08:25:13.308Z,16.85
2023-04-21T08:30:15.737Z,17.08
2023-04-21T08:35:17.902Z,17.21
2023-04-21T08:40:20.055Z,17.45
2023-04-21T08:45:22.207Z,17.57
2023-04-21T08:50:30.245Z,17.98
2023-04-21T08:55:33.060Z,18.29
2023-04-21T09:00:36.325Z,18.60
2023-04-21T09:05:42.935Z,18.98
2023-04-21T09:10:46.878Z,19.30
2023-04-21T09:15:52.265Z,18.89
2023-04-21T09:21:08.942Z,19.37
2023-04-21T09:26:11.842Z,20.14
2023-04-21T09:31:23.052Z,20.63
2023-04-21T09:36:27.879Z,20.66
2023-04-21T09:41:33.459Z,21.50
2023-04-21T09:46:36.790Z,21.80
2023-04-21T09:52:05.860Z,22.16
2023-04-21T09:57:05.307Z,21.65
2023-04-21T10:02:08.428Z,21.62
2023-04-21T10:07:11.670Z,21.17
2023-04-21T10:12:14.620Z,22.25
2023-04-21T10:17:17.939Z,22.58
2023-04-21T10:22:28.789Z,22.51
2023-04-21T10:27:41.999Z,22.26
2023-04-21T10:32:45.518Z,21.59
2023-04-21T10:37:49.596Z,21.26
